RCH3312 ENOL-EGUN
Flight info
| Callsign | RCH3312 |
|---|---|
| Flight time | N/A |
| Altitude | 28000 |
| Route | UVEPI DCT OSVIG M604 DANKO P850 OKMAM DCT SUTEB DCT RAVLO Y70 BODSO |
| Aircraft | C17/H-SDE1E2FGHIJ5RTUWXY/LB1D1 |
Departure
| Time | N/A |
|---|---|
| Airport | Ørland Airport (ENOL) |
Arrival
| Time | 2026-04-19 05:54 |
|---|---|
| Airport | RAF Mildenhall (EGUN) |
| Time | Latitude | Longitude | Altitude | Speed | Heading |
|---|---|---|---|---|---|
| 2026-04-19 05:38 | 52.89569 | 1.82856 | 10604 ft | 280 kts | 236° |
| 2026-04-19 05:38 | 52.88403 | 1.80289 | 10351 ft | 279 kts | 236° |
| 2026-04-19 05:38 | 52.87241 | 1.77725 | 10126 ft | 278 kts | 236° |
| 2026-04-19 05:38 | 52.86079 | 1.75172 | 9890 ft | 277 kts | 236° |
| 2026-04-19 05:39 | 52.84919 | 1.72632 | 9630 ft | 277 kts | 236° |
| 2026-04-19 05:39 | 52.83759 | 1.70088 | 9405 ft | 276 kts | 236° |
| 2026-04-19 05:39 | 52.82586 | 1.67520 | 9163 ft | 275 kts | 236° |
| 2026-04-19 05:39 | 52.81436 | 1.65003 | 8911 ft | 274 kts | 236° |
| 2026-04-19 05:40 | 52.80303 | 1.62523 | 8687 ft | 273 kts | 236° |
| 2026-04-19 05:40 | 52.79157 | 1.60021 | 8450 ft | 273 kts | 236° |
| 2026-04-19 05:40 | 52.78009 | 1.57522 | 8218 ft | 272 kts | 236° |
| 2026-04-19 05:40 | 52.76870 | 1.55035 | 7981 ft | 271 kts | 236° |
| 2026-04-19 05:41 | 52.75737 | 1.52568 | 7753 ft | 270 kts | 236° |
| 2026-04-19 05:41 | 52.74599 | 1.50097 | 7531 ft | 269 kts | 236° |
| 2026-04-19 05:41 | 52.73470 | 1.47642 | 7315 ft | 268 kts | 236° |
| 2026-04-19 05:41 | 52.72345 | 1.45197 | 7142 ft | 267 kts | 236° |
| 2026-04-19 05:42 | 52.71221 | 1.42761 | 6973 ft | 267 kts | 236° |
| 2026-04-19 05:42 | 52.70099 | 1.40329 | 6796 ft | 266 kts | 236° |
| 2026-04-19 05:42 | 52.68976 | 1.37900 | 6622 ft | 265 kts | 236° |
| 2026-04-19 05:42 | 52.67861 | 1.35488 | 6435 ft | 265 kts | 236° |
| 2026-04-19 05:43 | 52.66744 | 1.33076 | 6256 ft | 265 kts | 236° |
| 2026-04-19 05:43 | 52.65629 | 1.30668 | 6068 ft | 263 kts | 236° |
| 2026-04-19 05:43 | 52.64520 | 1.28277 | 5883 ft | 263 kts | 236° |
| 2026-04-19 05:43 | 52.63412 | 1.25889 | 5703 ft | 262 kts | 236° |
| 2026-04-19 05:44 | 52.62306 | 1.23510 | 5520 ft | 261 kts | 236° |
| 2026-04-19 05:44 | 52.61203 | 1.21137 | 5341 ft | 260 kts | 236° |
| 2026-04-19 05:44 | 52.60105 | 1.18781 | 5160 ft | 259 kts | 236° |
| 2026-04-19 05:44 | 52.59010 | 1.16427 | 4977 ft | 259 kts | 235° |
| 2026-04-19 05:45 | 52.57914 | 1.14076 | 4784 ft | 259 kts | 235° |
| 2026-04-19 05:45 | 52.56818 | 1.11731 | 4605 ft | 258 kts | 235° |
| 2026-04-19 05:45 | 52.55726 | 1.09393 | 4421 ft | 258 kts | 235° |
| 2026-04-19 05:45 | 52.54637 | 1.07064 | 4277 ft | 257 kts | 235° |
| 2026-04-19 05:46 | 52.53547 | 1.04738 | 4156 ft | 257 kts | 235° |
| 2026-04-19 05:46 | 52.52454 | 1.02404 | 4017 ft | 258 kts | 235° |
| 2026-04-19 05:46 | 52.51358 | 1.00064 | 3907 ft | 258 kts | 235° |
| 2026-04-19 05:46 | 52.50266 | 0.97739 | 3776 ft | 257 kts | 235° |
| 2026-04-19 05:47 | 52.49171 | 0.95408 | 3647 ft | 258 kts | 235° |
| 2026-04-19 05:47 | 52.48091 | 0.93114 | 3532 ft | 257 kts | 235° |
| 2026-04-19 05:47 | 52.47031 | 0.90865 | 3399 ft | 240 kts | 235° |
| 2026-04-19 05:47 | 52.46048 | 0.88783 | 3257 ft | 224 kts | 235° |
| 2026-04-19 05:48 | 52.45112 | 0.86786 | 3122 ft | 219 kts | 235° |
| 2026-04-19 05:48 | 52.44192 | 0.84829 | 3009 ft | 214 kts | 236° |
| 2026-04-19 05:48 | 52.43292 | 0.82921 | 2884 ft | 210 kts | 235° |
| 2026-04-19 05:48 | 52.42454 | 0.81162 | 2752 ft | 188 kts | 236° |
| 2026-04-19 05:49 | 52.41640 | 0.79440 | 2620 ft | 192 kts | 236° |
| 2026-04-19 05:49 | 52.40882 | 0.77653 | 2486 ft | 190 kts | 251° |
| 2026-04-19 05:49 | 52.40804 | 0.77255 | 2457 ft | 188 kts | 261° |
| 2026-04-19 05:49 | 52.40708 | 0.75961 | 2374 ft | 186 kts | 265° |
| 2026-04-19 05:50 | 52.39965 | 0.74213 | 2205 ft | 200 kts | 215° |
| 2026-04-19 05:50 | 52.38742 | 0.73127 | 2084 ft | 200 kts | 210° |
| 2026-04-19 05:50 | 52.37451 | 0.72336 | 1982 ft | 187 kts | 198° |
| 2026-04-19 05:50 | 52.36234 | 0.71792 | 1942 ft | 181 kts | 197° |
| 2026-04-19 05:51 | 52.35123 | 0.70950 | 1886 ft | 166 kts | 231° |
| 2026-04-19 05:51 | 52.34787 | 0.69319 | 1897 ft | 151 kts | 275° |
| 2026-04-19 05:51 | 52.34978 | 0.67653 | 1896 ft | 152 kts | 277° |
| 2026-04-19 05:51 | 52.34639 | 0.66011 | 1880 ft | 146 kts | 258° |
| 2026-04-19 05:52 | 52.34490 | 0.64373 | 1752 ft | 145 kts | 270° |
| 2026-04-19 05:52 | 52.34449 | 0.62752 | 1543 ft | 141 kts | 276° |
| 2026-04-19 05:52 | 52.34498 | 0.61217 | 1358 ft | 133 kts | 280° |
| 2026-04-19 05:52 | 52.34588 | 0.59713 | 1193 ft | 132 kts | 283° |
| 2026-04-19 05:53 | 52.34736 | 0.58281 | 1028 ft | 124 kts | 286° |
| 2026-04-19 05:53 | 52.34938 | 0.56885 | 853 ft | 126 kts | 287° |
| 2026-04-19 05:53 | 52.35165 | 0.55494 | 681 ft | 127 kts | 286° |
| 2026-04-19 05:53 | 52.35394 | 0.54094 | 495 ft | 128 kts | 285° |
| 2026-04-19 05:54 | 52.35600 | 0.52681 | 368 ft | 132 kts | 283° |
| 2026-04-19 05:54 | 52.35801 | 0.51314 | 163 ft | 117 kts | 284° |
| 2026-04-19 05:54 | 52.35992 | 0.50023 | 55 ft | 107 kts | 283° |
| 2026-04-19 05:54 | 52.36131 | 0.49096 | 41 ft | 36 kts | 284° |
| 2026-04-19 05:55 | 52.36169 | 0.48820 | 40 ft | 31 kts | 281° |
| 2026-04-19 05:55 | 52.36237 | 0.48511 | 39 ft | 24 kts | 322° |
| 2026-04-19 05:55 | 52.36396 | 0.48366 | 39 ft | 27 kts | 326° |
| 2026-04-19 05:55 | 52.36557 | 0.48235 | 38 ft | 27 kts | 334° |
| 2026-04-19 05:56 | 52.36707 | 0.48070 | 38 ft | 22 kts | 308° |
| 2026-04-19 05:56 | 52.36785 | 0.47923 | 37 ft | 16 kts | 300° |
| 2026-04-19 05:56 | 52.36802 | 0.47756 | 37 ft | 7 kts | 274° |
| 2026-04-19 05:56 | 52.36803 | 0.47753 | 37 ft | 0 kts | 274° |